createdAt,value
2022-11-30T00:00:22.529Z,1006.08
2022-11-30T00:01:22.540Z,1006.03
2022-11-30T00:02:22.671Z,1006.05
2022-11-30T00:03:22.619Z,1006.04
2022-11-30T00:04:22.486Z,1006.04
2022-11-30T00:05:22.486Z,1006.05
2022-11-30T00:06:22.443Z,1006.03
2022-11-30T00:07:22.482Z,1006.04
2022-11-30T00:08:22.434Z,1006.07
2022-11-30T00:09:22.419Z,1006.07
2022-11-30T00:10:22.394Z,1006.03
2022-11-30T00:11:22.385Z,1006.03
2022-11-30T00:12:22.386Z,1006.02
2022-11-30T00:13:22.381Z,1006.00
2022-11-30T00:14:22.349Z,1006.01
2022-11-30T00:15:22.319Z,1006.01
2022-11-30T00:16:22.452Z,1006.01
2022-11-30T00:17:22.339Z,1005.98
2022-11-30T00:18:22.303Z,1006.01
2022-11-30T00:19:22.275Z,1005.99
2022-11-30T00:20:22.269Z,1005.98
2022-11-30T00:21:22.240Z,1005.98
2022-11-30T00:22:22.259Z,1005.97
2022-11-30T00:23:22.246Z,1005.98
2022-11-30T00:24:22.209Z,1005.97
2022-11-30T00:25:22.192Z,1006.00
2022-11-30T00:26:22.265Z,1005.99
2022-11-30T00:27:22.361Z,1005.99
2022-11-30T00:28:22.176Z,1006.01
2022-11-30T00:29:22.146Z,1006.01
2022-11-30T00:30:22.137Z,1006.04
2022-11-30T00:31:22.157Z,1006.02
2022-11-30T00:32:22.128Z,1006.06
2022-11-30T00:33:22.201Z,1006.04
2022-11-30T00:34:22.090Z,1006.05
2022-11-30T00:35:22.174Z,1006.02
2022-11-30T00:36:22.293Z,1006.04
2022-11-30T00:37:22.110Z,1006.05
2022-11-30T00:38:22.258Z,1006.06
2022-11-30T00:39:22.073Z,1006.06
2022-11-30T00:40:22.116Z,1006.04
2022-11-30T00:41:21.999Z,1006.05
2022-11-30T00:42:22.122Z,1006.04
2022-11-30T00:43:22.289Z,1006.02
2022-11-30T00:44:21.978Z,1006.04
2022-11-30T00:45:22.122Z,1006.03
2022-11-30T00:46:22.031Z,1006.03
2022-11-30T00:47:22.970Z,1006.04
2022-11-30T00:48:21.986Z,1006.02
2022-11-30T00:49:21.901Z,1006.01
2022-11-30T00:50:21.898Z,1006.02
2022-11-30T00:51:21.881Z,1006.04
2022-11-30T00:52:21.877Z,1005.96
2022-11-30T00:53:21.850Z,1006.00
2022-11-30T00:54:21.838Z,1006.00
2022-11-30T00:55:21.811Z,1006.02
2022-11-30T00:56:24.654Z,1006.03
2022-11-30T00:57:21.853Z,1006.03
2022-11-30T00:58:21.760Z,1006.05
2022-11-30T00:59:21.756Z,1006.04
2022-11-30T01:00:21.756Z,1006.08
2022-11-30T01:01:21.807Z,1006.07
2022-11-30T01:02:21.766Z,1006.06
2022-11-30T01:03:21.728Z,1006.05
2022-11-30T01:04:21.712Z,1006.09
2022-11-30T01:05:21.698Z,1006.10
2022-11-30T01:06:21.692Z,1006.10
2022-11-30T01:07:21.762Z,1006.12
2022-11-30T01:08:21.634Z,1006.10
2022-11-30T01:09:21.626Z,1006.10
2022-11-30T01:10:21.608Z,1006.11
2022-11-30T01:11:21.609Z,1006.12
2022-11-30T01:12:21.605Z,1006.15
2022-11-30T01:13:21.567Z,1006.14
2022-11-30T01:14:21.577Z,1006.16
2022-11-30T01:15:21.546Z,1006.14
2022-11-30T01:16:21.602Z,1006.17
2022-11-30T01:17:21.591Z,1006.14
2022-11-30T01:18:21.589Z,1006.13
2022-11-30T01:19:21.497Z,1006.15
2022-11-30T01:20:21.531Z,1006.17
2022-11-30T01:21:21.474Z,1006.15
2022-11-30T01:22:21.481Z,1006.13
2022-11-30T01:23:21.501Z,1006.17
2022-11-30T01:24:21.428Z,1006.10
2022-11-30T01:25:21.404Z,1006.10
2022-11-30T01:26:21.421Z,1006.12
2022-11-30T01:27:21.412Z,1006.13
2022-11-30T01:28:21.399Z,1006.11
2022-11-30T01:29:21.358Z,1006.09
2022-11-30T01:30:21.344Z,1006.11
2022-11-30T01:31:21.470Z,1006.10
2022-11-30T01:32:21.330Z,1006.11
2022-11-30T01:33:21.330Z,1006.14
2022-11-30T01:34:21.288Z,1006.12
2022-11-30T01:35:21.276Z,1006.11
2022-11-30T01:36:21.268Z,1006.13
2022-11-30T01:37:21.277Z,1006.12
2022-11-30T01:38:21.239Z,1006.10
2022-11-30T01:39:21.226Z,1006.10
2022-11-30T01:40:21.218Z,1006.09
2022-11-30T01:41:21.340Z,1006.08
2022-11-30T01:42:21.197Z,1006.05
2022-11-30T01:43:21.233Z,1006.06
2022-11-30T01:44:21.155Z,1006.03
2022-11-30T01:45:21.159Z,1006.05
2022-11-30T01:46:21.174Z,1006.03
2022-11-30T01:47:21.161Z,1006.02
2022-11-30T01:48:21.108Z,1006.00
2022-11-30T01:49:21.099Z,1005.99
2022-11-30T01:50:21.090Z,1006.01
2022-11-30T01:51:21.091Z,1006.03
2022-11-30T01:52:21.388Z,1005.98
2022-11-30T01:53:21.058Z,1006.04
2022-11-30T01:54:21.044Z,1006.02
2022-11-30T01:55:21.031Z,1006.00
2022-11-30T01:56:20.999Z,1006.00
2022-11-30T01:57:21.022Z,1006.02
2022-11-30T01:58:21.030Z,1006.02
2022-11-30T01:59:20.969Z,1006.00
2022-11-30T02:00:20.961Z,1005.99
2022-11-30T02:01:21.001Z,1006.00
2022-11-30T02:02:20.971Z,1006.01
2022-11-30T02:03:20.907Z,1005.99
2022-11-30T02:04:20.898Z,1006.00
2022-11-30T02:05:20.902Z,1006.05
2022-11-30T02:06:20.881Z,1006.03
2022-11-30T02:07:21.015Z,1006.07
2022-11-30T02:08:20.977Z,1005.98
2022-11-30T02:09:20.834Z,1006.01
2022-11-30T02:10:20.818Z,1006.01
2022-11-30T02:11:20.815Z,1006.04
2022-11-30T02:12:20.790Z,1006.11
2022-11-30T02:13:20.812Z,1006.07
2022-11-30T02:14:20.796Z,1006.07
2022-11-30T02:15:20.810Z,1006.10
2022-11-30T02:16:20.769Z,1006.10
2022-11-30T02:17:20.738Z,1006.07
2022-11-30T02:18:20.758Z,1006.09
2022-11-30T02:19:20.759Z,1006.06
2022-11-30T02:20:20.689Z,1006.10
2022-11-30T02:21:20.678Z,1006.10
2022-11-30T02:22:20.667Z,1006.11
2022-11-30T02:23:20.679Z,1006.12
2022-11-30T02:24:20.634Z,1006.13
2022-11-30T02:25:20.625Z,1006.13
2022-11-30T02:26:20.616Z,1006.14
2022-11-30T02:27:20.609Z,1006.13
2022-11-30T02:28:20.918Z,1006.13
2022-11-30T02:29:20.590Z,1006.12
2022-11-30T02:30:20.569Z,1006.14
2022-11-30T02:31:20.572Z,1006.14
2022-11-30T02:32:20.539Z,1006.12
2022-11-30T02:33:20.539Z,1006.10
2022-11-30T02:34:20.507Z,1006.11
2022-11-30T02:35:20.502Z,1006.10
2022-11-30T02:36:20.503Z,1006.12
2022-11-30T02:37:20.476Z,1006.14
2022-11-30T02:38:20.469Z,1006.15
2022-11-30T02:39:20.450Z,1006.09
2022-11-30T02:40:20.425Z,1006.10
2022-11-30T02:41:20.429Z,1006.10
2022-11-30T02:42:20.398Z,1006.08
2022-11-30T02:43:20.411Z,1006.11
2022-11-30T02:44:20.388Z,1006.10
2022-11-30T02:45:20.420Z,1006.08
2022-11-30T02:46:20.470Z,1006.08
2022-11-30T02:47:20.345Z,1006.06
2022-11-30T02:48:20.395Z,1006.06
2022-11-30T02:49:20.309Z,1006.11
2022-11-30T02:50:20.298Z,1006.08
2022-11-30T02:51:20.300Z,1006.12
2022-11-30T02:52:20.268Z,1006.11
2022-11-30T02:53:20.269Z,1006.11
2022-11-30T02:54:20.267Z,1006.14
2022-11-30T02:55:20.261Z,1006.13
2022-11-30T02:56:20.260Z,1006.14
2022-11-30T02:57:20.238Z,1006.14
2022-11-30T02:58:20.196Z,1006.13
2022-11-30T02:59:20.225Z,1006.16
2022-11-30T03:00:20.235Z,1006.17
2022-11-30T03:01:20.224Z,1006.17
2022-11-30T03:02:20.201Z,1006.18
2022-11-30T03:03:20.139Z,1006.20
2022-11-30T03:04:20.145Z,1006.22
2022-11-30T03:05:20.098Z,1006.16
2022-11-30T03:06:20.089Z,1006.15
2022-11-30T03:07:20.130Z,1006.14
2022-11-30T03:08:20.059Z,1006.15
2022-11-30T03:09:20.079Z,1006.18
2022-11-30T03:10:20.039Z,1006.17
2022-11-30T03:11:20.037Z,1006.20
2022-11-30T03:12:20.013Z,1006.21
2022-11-30T03:13:20.012Z,1006.20
2022-11-30T03:14:20.089Z,1006.22
2022-11-30T03:15:19.977Z,1006.20
2022-11-30T03:16:20.061Z,1006.26
2022-11-30T03:17:19.979Z,1006.21
2022-11-30T03:18:19.941Z,1006.23
2022-11-30T03:19:19.943Z,1006.23
2022-11-30T03:20:19.911Z,1006.22
2022-11-30T03:21:19.917Z,1006.22
2022-11-30T03:22:19.880Z,1006.21
2022-11-30T03:23:19.870Z,1006.23
2022-11-30T03:24:19.871Z,1006.19
2022-11-30T03:25:19.864Z,1006.18
2022-11-30T03:26:19.844Z,1006.22
2022-11-30T03:27:19.819Z,1006.19
2022-11-30T03:28:19.801Z,1006.17
2022-11-30T03:29:19.816Z,1006.17
2022-11-30T03:30:19.805Z,1006.16
2022-11-30T03:31:19.822Z,1006.17
2022-11-30T03:32:19.750Z,1006.18
2022-11-30T03:33:19.744Z,1006.16
2022-11-30T03:34:19.756Z,1006.15
2022-11-30T03:35:19.748Z,1006.15
2022-11-30T03:36:19.741Z,1006.16
2022-11-30T03:37:19.712Z,1006.15
2022-11-30T03:38:19.663Z,1006.15
2022-11-30T03:39:19.682Z,1006.21
2022-11-30T03:40:19.676Z,1006.17
2022-11-30T03:41:19.629Z,1006.17
2022-11-30T03:42:19.654Z,1006.16
2022-11-30T03:43:19.619Z,1006.18
2022-11-30T03:44:19.665Z,1006.17
2022-11-30T03:45:19.675Z,1006.17
2022-11-30T03:46:19.636Z,1006.16
2022-11-30T03:47:19.591Z,1006.16
2022-11-30T03:48:19.551Z,1006.18
2022-11-30T03:49:19.540Z,1006.15
2022-11-30T03:50:19.547Z,1006.17
2022-11-30T03:51:19.498Z,1006.18
2022-11-30T03:52:19.488Z,1006.17
2022-11-30T03:53:19.513Z,1006.16
2022-11-30T03:54:19.509Z,1006.19
2022-11-30T03:55:19.461Z,1006.17
2022-11-30T03:56:19.489Z,1006.16
2022-11-30T03:57:19.427Z,1006.17
2022-11-30T03:58:19.410Z,1006.17
2022-11-30T03:59:19.526Z,1006.14
2022-11-30T04:00:19.477Z,1006.12
2022-11-30T04:01:19.463Z,1006.11
2022-11-30T04:02:19.360Z,1006.12
2022-11-30T04:03:19.397Z,1006.16
2022-11-30T04:04:19.327Z,1006.16
2022-11-30T04:05:19.409Z,1006.19
2022-11-30T04:06:19.386Z,1006.19
2022-11-30T04:07:19.364Z,1006.19
2022-11-30T04:08:19.273Z,1006.21
2022-11-30T04:09:19.311Z,1006.18
2022-11-30T04:10:19.311Z,1006.19
2022-11-30T04:11:19.320Z,1006.20
2022-11-30T04:12:19.220Z,1006.16
2022-11-30T04:13:19.243Z,1006.17
2022-11-30T04:14:19.243Z,1006.17
2022-11-30T04:15:19.212Z,1006.14
2022-11-30T04:16:19.334Z,1006.12
2022-11-30T04:17:19.161Z,1006.14
2022-11-30T04:18:19.220Z,1006.16
2022-11-30T04:19:19.145Z,1006.16
2022-11-30T04:20:19.223Z,1006.20
2022-11-30T04:21:19.178Z,1006.19
2022-11-30T04:22:19.091Z,1006.19
2022-11-30T04:23:19.078Z,1006.22
2022-11-30T04:24:19.099Z,1006.22
2022-11-30T04:25:19.087Z,1006.20
2022-11-30T04:26:19.039Z,1006.25
2022-11-30T04:27:19.044Z,1006.23
2022-11-30T04:28:19.009Z,1006.23
2022-11-30T04:29:19.006Z,1006.22
2022-11-30T04:30:19.012Z,1006.23
2022-11-30T04:31:19.039Z,1006.25
2022-11-30T04:32:18.971Z,1006.24
2022-11-30T04:33:19.009Z,1006.22
2022-11-30T04:34:18.948Z,1006.25
2022-11-30T04:35:18.930Z,1006.24
2022-11-30T04:36:18.987Z,1006.27
2022-11-30T04:37:18.906Z,1006.29
2022-11-30T04:38:18.878Z,1006.29
2022-11-30T04:39:18.926Z,1006.31
2022-11-30T04:40:18.883Z,1006.34
2022-11-30T04:41:18.885Z,1006.33
2022-11-30T04:42:18.845Z,1006.31
2022-11-30T04:43:18.829Z,1006.31
2022-11-30T04:44:18.818Z,1006.31
2022-11-30T04:45:18.798Z,1006.33
2022-11-30T04:46:18.901Z,1006.31
2022-11-30T04:47:18.764Z,1006.36
2022-11-30T04:48:18.778Z,1006.39
2022-11-30T04:49:18.769Z,1006.32
2022-11-30T04:50:18.748Z,1006.38
2022-11-30T04:51:18.750Z,1006.35
2022-11-30T04:52:18.706Z,1006.33
2022-11-30T04:53:18.677Z,1006.39
2022-11-30T04:54:18.708Z,1006.40
2022-11-30T04:55:18.667Z,1006.40
2022-11-30T04:56:18.659Z,1006.42
2022-11-30T04:57:18.629Z,1006.40
2022-11-30T04:58:18.618Z,1006.46
2022-11-30T04:59:18.605Z,1006.44
2022-11-30T05:00:18.661Z,1006.43
2022-11-30T05:01:18.674Z,1006.44
2022-11-30T05:02:18.594Z,1006.41
2022-11-30T05:03:18.556Z,1006.40
2022-11-30T05:04:18.578Z,1006.41
2022-11-30T05:05:18.565Z,1006.40
2022-11-30T05:06:18.536Z,1006.38
2022-11-30T05:07:18.583Z,1006.39
2022-11-30T05:08:18.536Z,1006.39
2022-11-30T05:09:18.509Z,1006.42
2022-11-30T05:10:18.520Z,1006.41
2022-11-30T05:11:18.479Z,1006.40
2022-11-30T05:12:18.458Z,1006.40
2022-11-30T05:13:18.425Z,1006.39
2022-11-30T05:14:18.429Z,1006.38
2022-11-30T05:15:18.397Z,1006.37
2022-11-30T05:16:18.420Z,1006.37
2022-11-30T05:17:18.380Z,1006.42
2022-11-30T05:18:18.365Z,1006.39
2022-11-30T05:19:18.339Z,1006.40
2022-11-30T05:20:18.391Z,1006.38
2022-11-30T05:21:18.386Z,1006.40
2022-11-30T05:22:18.338Z,1006.37
2022-11-30T05:23:18.323Z,1006.36
2022-11-30T05:24:18.278Z,1006.40
2022-11-30T05:25:18.271Z,1006.42
2022-11-30T05:26:18.279Z,1006.36
2022-11-30T05:27:22.471Z,1006.34
2022-11-30T05:28:18.443Z,1006.35
2022-11-30T05:29:18.207Z,1006.36
2022-11-30T05:30:18.195Z,1006.38
2022-11-30T05:31:18.236Z,1006.43
2022-11-30T05:32:18.181Z,1006.43
2022-11-30T05:33:18.155Z,1006.39
2022-11-30T05:34:18.187Z,1006.40
2022-11-30T05:35:18.138Z,1006.41
2022-11-30T05:36:18.138Z,1006.41
2022-11-30T05:37:18.107Z,1006.42
2022-11-30T05:38:18.098Z,1006.39
2022-11-30T05:39:18.076Z,1006.41
2022-11-30T05:40:25.158Z,1006.39
2022-11-30T05:41:18.169Z,1006.38
2022-11-30T05:42:18.046Z,1006.42
2022-11-30T05:43:18.027Z,1006.40
2022-11-30T05:44:18.006Z,1006.42
2022-11-30T05:45:18.006Z,1006.45
2022-11-30T05:46:18.065Z,1006.43
2022-11-30T05:47:18.083Z,1006.43
2022-11-30T05:48:17.975Z,1006.44
2022-11-30T05:49:17.948Z,1006.46
2022-11-30T05:50:17.944Z,1006.42
2022-11-30T05:51:18.212Z,1006.44
2022-11-30T05:52:19.896Z,1006.43
2022-11-30T05:53:17.927Z,1006.43
2022-11-30T05:54:17.897Z,1006.42
2022-11-30T05:55:23.086Z,1006.45
2022-11-30T05:56:19.296Z,1006.44
2022-11-30T05:57:17.847Z,1006.41
2022-11-30T05:58:17.827Z,1006.45
2022-11-30T05:59:17.817Z,1006.43
2022-11-30T06:00:17.807Z,1006.41
2022-11-30T06:01:17.814Z,1006.44
2022-11-30T06:02:17.867Z,1006.44
2022-11-30T06:03:17.853Z,1006.46
2022-11-30T06:04:17.760Z,1006.44
2022-11-30T06:05:17.756Z,1006.47
2022-11-30T06:06:17.748Z,1006.47
2022-11-30T06:07:17.754Z,1006.45
2022-11-30T06:08:17.704Z,1006.49
2022-11-30T06:09:17.685Z,1006.45
2022-11-30T06:10:17.676Z,1006.49
2022-11-30T06:11:17.674Z,1006.49
2022-11-30T06:12:17.652Z,1006.49
2022-11-30T06:13:17.649Z,1006.50
2022-11-30T06:14:17.624Z,1006.47
2022-11-30T06:15:17.596Z,1006.51
2022-11-30T06:16:17.694Z,1006.53
2022-11-30T06:17:17.590Z,1006.55
2022-11-30T06:18:17.618Z,1006.55
2022-11-30T06:19:17.557Z,1006.56
2022-11-30T06:20:17.548Z,1006.57
2022-11-30T06:21:23.887Z,1006.58
2022-11-30T06:22:18.516Z,1006.53
2022-11-30T06:23:17.518Z,1006.57
2022-11-30T06:24:17.476Z,1006.56
2022-11-30T06:25:17.478Z,1006.54
2022-11-30T06:26:17.480Z,1006.53
2022-11-30T06:27:17.474Z,1006.55
2022-11-30T06:28:17.436Z,1006.59
2022-11-30T06:29:17.427Z,1006.55
2022-11-30T06:30:17.409Z,1006.59
2022-11-30T06:31:17.439Z,1006.57
2022-11-30T06:32:17.387Z,1006.60
2022-11-30T06:33:17.364Z,1006.58
2022-11-30T06:34:17.367Z,1006.61
2022-11-30T06:35:17.351Z,1006.61
2022-11-30T06:36:17.346Z,1006.64
2022-11-30T06:37:17.335Z,1006.64
2022-11-30T06:38:17.318Z,1006.65
2022-11-30T06:39:23.379Z,1006.66
2022-11-30T06:40:18.276Z,1006.66
2022-11-30T06:41:17.275Z,1006.68
2022-11-30T06:42:17.267Z,1006.68
2022-11-30T06:43:17.236Z,1006.67
2022-11-30T06:44:17.227Z,1006.66
2022-11-30T06:45:17.217Z,1006.66
2022-11-30T06:46:17.254Z,1006.67
2022-11-30T06:47:17.204Z,1006.66
2022-11-30T06:48:17.176Z,1006.66
2022-11-30T06:49:17.155Z,1006.67
2022-11-30T06:50:17.147Z,1006.65
2022-11-30T06:51:17.138Z,1006.63
2022-11-30T06:52:17.135Z,1006.64
2022-11-30T06:53:17.106Z,1006.64
2022-11-30T06:54:17.209Z,1006.67
2022-11-30T06:55:17.463Z,1006.64
2022-11-30T06:56:17.077Z,1006.65
2022-11-30T06:57:17.075Z,1006.69
2022-11-30T06:58:17.051Z,1006.68
2022-11-30T06:59:17.030Z,1006.67
2022-11-30T07:00:17.016Z,1006.67
2022-11-30T07:01:17.126Z,1006.67
2022-11-30T07:02:18.558Z,1006.69
2022-11-30T07:03:16.976Z,1006.67
2022-11-30T07:04:17.001Z,1006.69
2022-11-30T07:05:16.953Z,1006.72
2022-11-30T07:06:16.991Z,1006.67
2022-11-30T07:07:17.104Z,1006.71
2022-11-30T07:08:16.916Z,1006.74
2022-11-30T07:09:16.917Z,1006.77
2022-11-30T07:10:20.099Z,1006.79
2022-11-30T07:11:16.876Z,1006.75
2022-11-30T07:12:16.879Z,1006.79
2022-11-30T07:13:16.833Z,1006.80
2022-11-30T07:14:16.826Z,1006.84
2022-11-30T07:15:16.816Z,1006.83
2022-11-30T07:16:16.833Z,1006.84
2022-11-30T07:17:16.807Z,1006.85
2022-11-30T07:18:16.776Z,1006.85
2022-11-30T07:19:16.765Z,1006.86
2022-11-30T07:20:16.746Z,1006.86
2022-11-30T07:21:16.735Z,1006.88
2022-11-30T07:22:16.736Z,1006.84
2022-11-30T07:23:16.718Z,1006.87
2022-11-30T07:24:16.696Z,1006.88
2022-11-30T07:25:16.683Z,1006.92
2022-11-30T07:26:16.666Z,1006.94
2022-11-30T07:27:16.673Z,1006.92
2022-11-30T07:28:16.647Z,1006.91
2022-11-30T07:29:16.628Z,1006.89
2022-11-30T07:30:16.628Z,1006.92
2022-11-30T07:31:16.935Z,1006.93
2022-11-30T07:32:16.605Z,1006.91
2022-11-30T07:33:16.585Z,1006.94
2022-11-30T07:34:16.573Z,1006.90
2022-11-30T07:35:16.557Z,1006.92
2022-11-30T07:36:16.546Z,1006.91
2022-11-30T07:37:16.549Z,1006.95
2022-11-30T07:38:16.516Z,1006.93
2022-11-30T07:39:16.496Z,1006.96
2022-11-30T07:40:16.500Z,1006.97
2022-11-30T07:41:16.503Z,1006.98
2022-11-30T07:42:16.477Z,1006.97
2022-11-30T07:43:16.447Z,1007.02
2022-11-30T07:44:16.437Z,1007.01
2022-11-30T07:45:16.416Z,1007.00
2022-11-30T07:46:16.480Z,1007.01
2022-11-30T07:47:16.437Z,1007.04
2022-11-30T07:48:16.386Z,1007.08
2022-11-30T07:49:16.379Z,1007.04
2022-11-30T07:50:16.357Z,1007.10
2022-11-30T07:51:16.345Z,1007.09
2022-11-30T07:52:16.336Z,1007.10
2022-11-30T07:53:16.316Z,1007.11
2022-11-30T07:54:16.385Z,1007.14
2022-11-30T07:55:16.286Z,1007.08
2022-11-30T07:56:16.277Z,1007.12
2022-11-30T07:57:16.287Z,1007.13
2022-11-30T07:58:17.667Z,1007.12
2022-11-30T07:59:16.236Z,1007.10
2022-11-30T08:00:16.226Z,1007.06
2022-11-30T08:01:16.302Z,1007.01
2022-11-30T08:02:16.338Z,1007.02
2022-11-30T08:03:16.185Z,1006.98
2022-11-30T08:04:16.198Z,1007.01
2022-11-30T08:05:16.157Z,1007.00
2022-11-30T08:06:16.155Z,1007.02
2022-11-30T08:07:16.144Z,1007.04
2022-11-30T08:08:16.116Z,1007.01
2022-11-30T08:09:20.575Z,1007.03
2022-11-30T08:10:16.107Z,1007.03
2022-11-30T08:11:16.089Z,1007.01
2022-11-30T08:12:16.087Z,1007.02
2022-11-30T08:13:16.046Z,1007.02
2022-11-30T08:14:16.037Z,1007.02
2022-11-30T08:15:20.625Z,1007.01
2022-11-30T08:16:17.120Z,1006.96
2022-11-30T08:17:16.016Z,1006.99
2022-11-30T08:18:15.986Z,1007.01
2022-11-30T08:19:15.977Z,1007.01
2022-11-30T08:20:15.977Z,1007.01
2022-11-30T08:21:15.956Z,1007.05
2022-11-30T08:22:15.960Z,1007.01
2022-11-30T08:23:15.924Z,1007.06
2022-11-30T08:24:15.989Z,1007.05
2022-11-30T08:25:15.897Z,1007.07
2022-11-30T08:26:15.876Z,1007.05
2022-11-30T08:27:15.887Z,1007.06
2022-11-30T08:28:15.857Z,1007.06
2022-11-30T08:29:15.844Z,1007.05
2022-11-30T08:30:15.826Z,1007.06
2022-11-30T08:31:15.875Z,1007.08
2022-11-30T08:32:15.826Z,1007.05
2022-11-30T08:33:15.927Z,1007.10
2022-11-30T08:34:15.754Z,1007.12
2022-11-30T08:35:15.744Z,1007.11
2022-11-30T08:36:15.734Z,1007.11
2022-11-30T08:37:15.713Z,1007.10
2022-11-30T08:38:15.738Z,1007.11
2022-11-30T08:39:15.706Z,1007.10
2022-11-30T08:40:15.687Z,1007.08
2022-11-30T08:41:15.675Z,1007.10
2022-11-30T08:42:15.667Z,1007.08
2022-11-30T08:43:15.666Z,1007.09
2022-11-30T08:44:15.636Z,1007.12
2022-11-30T08:45:15.636Z,1007.12
2022-11-30T08:47:16.655Z,1007.09
2022-11-30T08:48:15.607Z,1007.06
2022-11-30T08:49:24.174Z,1007.14
2022-11-30T08:50:16.560Z,1007.10
2022-11-30T08:51:15.537Z,1007.06
2022-11-30T08:52:17.338Z,1007.08
2022-11-30T08:53:15.537Z,1007.06
2022-11-30T08:54:15.501Z,1007.11
2022-11-30T08:55:15.486Z,1007.08
2022-11-30T08:56:15.494Z,1007.11
2022-11-30T08:57:15.557Z,1007.11
2022-11-30T08:58:15.456Z,1007.09
2022-11-30T08:59:15.437Z,1007.08
2022-11-30T09:00:15.415Z,1007.11
2022-11-30T09:01:15.406Z,1007.14
2022-11-30T09:02:15.439Z,1007.12
2022-11-30T09:03:15.395Z,1007.17
2022-11-30T09:04:15.367Z,1007.15
2022-11-30T09:05:15.635Z,1007.19
2022-11-30T09:06:15.336Z,1007.22
2022-11-30T09:07:15.327Z,1007.23
2022-11-30T09:08:15.326Z,1007.21
2022-11-30T09:09:15.296Z,1007.25
2022-11-30T09:10:15.287Z,1007.21
2022-11-30T09:11:15.333Z,1007.21
2022-11-30T09:12:15.256Z,1007.21
2022-11-30T09:13:15.266Z,1007.22
2022-11-30T09:14:15.225Z,1007.24
2022-11-30T09:15:15.225Z,1007.21
2022-11-30T09:16:15.264Z,1007.24
2022-11-30T09:17:15.270Z,1007.23
2022-11-30T09:18:15.203Z,1007.26
2022-11-30T09:19:15.179Z,1007.23
2022-11-30T09:20:15.149Z,1007.24
2022-11-30T09:21:15.139Z,1007.28
2022-11-30T09:22:15.113Z,1007.25
2022-11-30T09:23:15.105Z,1007.29
2022-11-30T09:24:15.105Z,1007.28
2022-11-30T09:25:15.079Z,1007.28
2022-11-30T09:26:15.057Z,1007.26
2022-11-30T09:27:15.079Z,1007.26
2022-11-30T09:28:15.038Z,1007.26
2022-11-30T09:29:15.148Z,1007.29
2022-11-30T09:30:15.008Z,1007.29
2022-11-30T09:31:15.037Z,1007.26
2022-11-30T09:32:14.987Z,1007.30
2022-11-30T09:33:14.968Z,1007.32
2022-11-30T09:34:15.004Z,1007.28
2022-11-30T09:35:14.958Z,1007.31
2022-11-30T09:36:14.956Z,1007.33
2022-11-30T09:37:14.958Z,1007.31
2022-11-30T09:38:14.899Z,1007.31
2022-11-30T09:39:15.045Z,1007.28
2022-11-30T09:40:14.925Z,1007.29
2022-11-30T09:41:14.876Z,1007.26
2022-11-30T09:42:14.872Z,1007.25
2022-11-30T09:43:14.837Z,1007.25
2022-11-30T09:44:14.896Z,1007.25
2022-11-30T09:45:14.857Z,1007.27
2022-11-30T09:46:14.824Z,1007.21
2022-11-30T09:47:14.786Z,1007.24
2022-11-30T09:48:14.764Z,1007.21
2022-11-30T09:49:14.776Z,1007.22
2022-11-30T09:50:14.735Z,1007.27
2022-11-30T09:51:14.749Z,1007.24
2022-11-30T09:52:14.714Z,1007.25
2022-11-30T09:53:14.707Z,1007.22
2022-11-30T09:54:14.717Z,1007.25
2022-11-30T09:55:14.676Z,1007.23
2022-11-30T09:56:14.810Z,1007.24
2022-11-30T09:57:14.649Z,1007.24
2022-11-30T09:58:14.714Z,1007.21
2022-11-30T09:59:14.639Z,1007.21
2022-11-30T10:00:14.699Z,1007.23
2022-11-30T10:01:14.643Z,1007.25
2022-11-30T10:02:14.699Z,1007.20
2022-11-30T10:03:14.783Z,1007.19
2022-11-30T10:04:14.598Z,1007.20
2022-11-30T10:05:14.639Z,1007.24
2022-11-30T10:06:14.516Z,1007.26
2022-11-30T10:07:14.512Z,1007.26
2022-11-30T10:08:17.697Z,1007.25
2022-11-30T10:09:14.527Z,1007.27
2022-11-30T10:11:15.456Z,1007.26
2022-11-30T10:12:14.448Z,1007.27
2022-11-30T10:13:14.429Z,1007.24
2022-11-30T10:14:14.427Z,1007.23
2022-11-30T10:15:14.576Z,1007.25
2022-11-30T10:16:14.389Z,1007.25
2022-11-30T10:17:14.373Z,1007.25
2022-11-30T10:18:14.379Z,1007.25
2022-11-30T10:19:14.409Z,1007.27
2022-11-30T10:20:14.356Z,1007.27
2022-11-30T10:21:14.330Z,1007.22
2022-11-30T10:22:14.317Z,1007.28
2022-11-30T10:23:14.315Z,1007.26
2022-11-30T10:24:14.317Z,1007.26
2022-11-30T10:25:14.307Z,1007.25
2022-11-30T10:26:14.268Z,1007.30
2022-11-30T10:27:14.249Z,1007.29
2022-11-30T10:28:45.139Z,1007.28
2022-11-30T10:29:15.229Z,1007.23
2022-11-30T10:30:14.227Z,1007.25
2022-11-30T10:31:14.274Z,1007.27
2022-11-30T10:32:14.188Z,1007.28
2022-11-30T10:33:14.188Z,1007.29
2022-11-30T10:34:14.149Z,1007.27
2022-11-30T10:35:14.157Z,1007.29
2022-11-30T10:36:14.130Z,1007.31
2022-11-30T10:37:14.118Z,1007.29
2022-11-30T10:38:14.140Z,1007.29
2022-11-30T10:39:14.555Z,1007.29
2022-11-30T10:40:14.087Z,1007.28
2022-11-30T10:41:14.195Z,1007.26
2022-11-30T10:42:14.068Z,1007.21
2022-11-30T10:43:14.037Z,1007.20
2022-11-30T10:44:14.020Z,1007.21
2022-11-30T10:45:14.032Z,1007.19
2022-11-30T10:46:17.137Z,1007.16
2022-11-30T10:47:13.988Z,1007.16
2022-11-30T10:48:13.967Z,1007.17
2022-11-30T10:49:13.968Z,1007.15
2022-11-30T10:50:13.977Z,1007.11
2022-11-30T10:51:13.928Z,1007.13
2022-11-30T10:52:13.911Z,1007.12
2022-11-30T10:53:13.903Z,1007.18
2022-11-30T10:54:13.891Z,1007.14
2022-11-30T10:55:13.888Z,1007.14
2022-11-30T10:56:13.859Z,1007.15
2022-11-30T10:57:13.848Z,1007.16
2022-11-30T10:58:13.830Z,1007.11
2022-11-30T10:59:13.818Z,1007.13
2022-11-30T11:00:13.857Z,1007.15
2022-11-30T11:01:13.836Z,1007.11
2022-11-30T11:02:13.810Z,1007.11
2022-11-30T11:03:13.768Z,1007.10
2022-11-30T11:04:13.758Z,1007.11
2022-11-30T11:05:13.739Z,1007.08
2022-11-30T11:06:13.739Z,1007.13
2022-11-30T11:07:13.805Z,1007.12
2022-11-30T11:08:13.751Z,1007.07
2022-11-30T11:09:13.689Z,1007.09
2022-11-30T11:10:13.711Z,1007.06
2022-11-30T11:11:13.678Z,1007.07
2022-11-30T11:12:13.649Z,1007.03
2022-11-30T11:13:13.638Z,1007.05
2022-11-30T11:14:13.652Z,1007.05
2022-11-30T11:15:13.668Z,1007.03
2022-11-30T11:16:13.857Z,1007.04
2022-11-30T11:17:13.605Z,1007.02
2022-11-30T11:18:13.596Z,1007.04
2022-11-30T11:19:13.628Z,1007.01
2022-11-30T11:20:13.621Z,1007.01
2022-11-30T11:21:13.607Z,1007.00
2022-11-30T11:22:13.596Z,1007.04
2022-11-30T11:23:13.569Z,1007.05
2022-11-30T11:24:13.572Z,1007.06
2022-11-30T11:25:13.560Z,1007.06
2022-11-30T11:26:13.519Z,1007.05
2022-11-30T11:27:13.469Z,1007.09
2022-11-30T11:28:13.460Z,1007.07
2022-11-30T11:29:13.419Z,1007.07
2022-11-30T11:30:13.520Z,1007.06
2022-11-30T11:31:13.434Z,1007.08
2022-11-30T11:32:13.375Z,1007.04
2022-11-30T11:33:13.366Z,1007.07
2022-11-30T11:34:13.407Z,1007.08
2022-11-30T11:35:13.395Z,1007.06
2022-11-30T11:36:13.384Z,1007.08
2022-11-30T11:37:13.454Z,1007.01
2022-11-30T11:38:13.297Z,1007.03
2022-11-30T11:39:13.278Z,1007.05
2022-11-30T11:40:13.341Z,1006.98
2022-11-30T11:41:13.270Z,1007.02
2022-11-30T11:42:16.558Z,1007.02
2022-11-30T11:43:13.229Z,1006.98
2022-11-30T11:44:13.218Z,1007.02
2022-11-30T11:45:13.198Z,1007.01
2022-11-30T11:46:13.298Z,1007.05
2022-11-30T11:47:13.168Z,1007.08
2022-11-30T11:48:13.158Z,1007.06
2022-11-30T11:49:13.165Z,1007.08
2022-11-30T11:50:13.134Z,1007.04
2022-11-30T11:51:13.139Z,1007.05
2022-11-30T11:52:13.165Z,1007.06
2022-11-30T11:53:13.122Z,1007.07
2022-11-30T11:54:13.091Z,1007.08
2022-11-30T11:55:13.080Z,1007.09
2022-11-30T11:56:13.068Z,1007.10
2022-11-30T11:57:13.130Z,1007.06
2022-11-30T11:58:13.029Z,1007.08
2022-11-30T11:59:13.008Z,1007.08
2022-11-30T12:00:16.485Z,1007.12
2022-11-30T12:01:38.749Z,1007.08
2022-11-30T12:02:14.007Z,1007.07
2022-11-30T12:03:12.959Z,1007.05
2022-11-30T12:04:12.988Z,1007.03
2022-11-30T12:05:12.928Z,1007.05
2022-11-30T12:06:12.924Z,1007.03
2022-11-30T12:07:16.704Z,1007.00